createdAt,value
2022-09-06T00:02:20.938Z,0.77
2022-09-06T00:04:49.145Z,1.10
2022-09-06T00:07:16.469Z,0.93
2022-09-06T00:09:43.684Z,0.90
2022-09-06T00:12:11.062Z,0.90
2022-09-06T00:14:38.303Z,0.90
2022-09-06T00:17:05.531Z,0.93
2022-09-06T00:19:32.415Z,0.90
2022-09-06T00:21:59.614Z,1.17
2022-09-06T00:24:26.805Z,1.20
2022-09-06T00:26:54.023Z,0.80
2022-09-06T00:29:21.309Z,0.98
2022-09-06T00:31:48.496Z,0.60
2022-09-06T00:34:15.742Z,1.00
2022-09-06T00:36:42.965Z,0.80
2022-09-06T00:39:10.253Z,0.90
2022-09-06T00:41:37.512Z,0.63
2022-09-06T00:44:04.892Z,0.73
2022-09-06T00:46:32.932Z,0.98
2022-09-06T00:49:09.508Z,0.90
2022-09-06T00:51:37.211Z,0.88
2022-09-06T00:54:07.082Z,0.70
2022-09-06T00:56:36.090Z,0.80
2022-09-06T00:59:03.340Z,1.10
2022-09-06T01:01:30.327Z,0.90
2022-09-06T01:03:57.692Z,0.73
2022-09-06T01:06:26.917Z,0.90
2022-09-06T01:08:57.859Z,0.65
2022-09-06T01:11:27.876Z,1.05
2022-09-06T01:14:10.264Z,0.80
2022-09-06T01:16:43.895Z,0.90
2022-09-06T01:19:20.319Z,1.00
2022-09-06T01:21:50.532Z,1.00
2022-09-06T01:24:34.232Z,0.70
2022-09-06T01:27:13.776Z,0.95
2022-09-06T01:29:51.741Z,0.80
2022-09-06T01:32:28.660Z,0.70
2022-09-06T01:35:01.618Z,0.70
2022-09-06T01:37:29.051Z,1.10
2022-09-06T01:39:56.389Z,0.88
2022-09-06T01:42:26.222Z,0.98
2022-09-06T01:45:04.889Z,1.13
2022-09-06T01:47:40.742Z,0.98
2022-09-06T01:50:10.977Z,1.58
2022-09-06T01:52:38.255Z,2.10
2022-09-06T01:55:22.332Z,2.03
2022-09-06T01:58:05.011Z,2.17
2022-09-06T02:00:36.300Z,1.30
2022-09-06T02:03:22.905Z,1.67
2022-09-06T02:05:52.619Z,1.50
2022-09-06T02:08:23.206Z,1.25
2022-09-06T02:11:04.232Z,1.20
2022-09-06T02:13:34.127Z,1.45
2022-09-06T02:16:06.302Z,1.02
2022-09-06T02:18:36.504Z,1.20
2022-09-06T02:21:04.746Z,1.10
2022-09-06T02:23:34.385Z,1.48
2022-09-06T02:26:12.524Z,1.40
2022-09-06T02:28:39.852Z,1.45
2022-09-06T02:31:13.152Z,1.77
2022-09-06T02:33:41.196Z,1.63
2022-09-06T02:36:10.272Z,1.35
2022-09-06T02:38:40.172Z,1.10
2022-09-06T02:41:07.900Z,1.08
2022-09-06T02:43:35.196Z,1.20
2022-09-06T02:46:03.112Z,1.33
2022-09-06T02:48:30.537Z,1.20
2022-09-06T02:50:57.787Z,0.95
2022-09-06T02:53:25.029Z,1.00
2022-09-06T02:55:51.942Z,1.23
2022-09-06T02:58:19.270Z,0.70
2022-09-06T03:00:46.501Z,0.70
2022-09-06T03:03:13.836Z,1.00
2022-09-06T03:05:40.686Z,1.20
2022-09-06T03:08:07.925Z,1.00
2022-09-06T03:10:35.371Z,1.02
2022-09-06T03:13:02.369Z,0.80
2022-09-06T03:15:29.684Z,0.75
2022-09-06T03:18:00.348Z,0.93
2022-09-06T03:20:27.699Z,1.15
2022-09-06T03:22:55.013Z,0.70
2022-09-06T03:25:22.292Z,1.00
2022-09-06T03:27:49.764Z,0.73
2022-09-06T03:30:17.076Z,0.77
2022-09-06T03:32:45.157Z,0.75
2022-09-06T03:35:12.529Z,0.88
2022-09-06T03:37:39.808Z,1.05
2022-09-06T03:40:07.667Z,1.10
2022-09-06T03:42:34.996Z,0.85
2022-09-06T03:45:02.273Z,0.93
2022-09-06T03:47:29.895Z,0.80
2022-09-06T03:49:57.128Z,0.63
2022-09-06T03:52:24.408Z,0.70
2022-09-06T03:54:51.690Z,0.70
2022-09-06T03:57:18.902Z,0.80
2022-09-06T03:59:46.177Z,0.80
2022-09-06T04:02:13.472Z,1.42
2022-09-06T04:04:40.782Z,0.90
2022-09-06T04:07:08.079Z,0.70
2022-09-06T04:09:35.377Z,0.77
2022-09-06T04:12:02.537Z,0.77
2022-09-06T04:14:30.028Z,0.80
2022-09-06T04:16:57.334Z,0.60
2022-09-06T04:19:24.649Z,0.70
2022-09-06T04:21:52.220Z,0.82
2022-09-06T04:24:19.433Z,0.70
2022-09-06T04:26:46.642Z,0.80
2022-09-06T04:29:13.941Z,0.73
2022-09-06T04:31:41.304Z,0.75
2022-09-06T04:34:08.565Z,0.90
2022-09-06T04:36:35.444Z,0.90
2022-09-06T04:39:03.292Z,0.75
2022-09-06T04:41:30.534Z,0.77
2022-09-06T04:43:57.764Z,0.90
2022-09-06T04:46:26.061Z,0.80
2022-09-06T04:48:53.945Z,0.75
2022-09-06T04:51:21.537Z,0.90
2022-09-06T04:53:49.140Z,0.82
2022-09-06T04:56:18.083Z,0.70
2022-09-06T04:58:46.345Z,0.82
2022-09-06T05:01:13.964Z,1.20
2022-09-06T05:03:41.485Z,0.90
2022-09-06T05:06:13.344Z,1.00
2022-09-06T05:08:41.682Z,0.98
2022-09-06T05:11:10.985Z,0.80
2022-09-06T05:13:38.618Z,1.00
2022-09-06T05:16:07.507Z,1.10
2022-09-06T05:18:35.443Z,1.00
2022-09-06T05:21:02.357Z,0.90
2022-09-06T05:23:29.693Z,0.98
2022-09-06T05:25:56.948Z,0.95
2022-09-06T05:28:24.435Z,0.82
2022-09-06T05:30:51.816Z,0.73
2022-09-06T05:33:23.180Z,0.85
2022-09-06T05:35:50.432Z,0.95
2022-09-06T05:38:17.783Z,1.13
2022-09-06T05:40:45.032Z,1.10
2022-09-06T05:43:12.291Z,1.10
2022-09-06T05:45:39.858Z,1.00
2022-09-06T05:48:07.363Z,1.08
2022-09-06T05:50:34.584Z,1.00
2022-09-06T05:53:02.194Z,1.45
2022-09-06T05:55:29.534Z,1.20
2022-09-06T05:57:56.993Z,1.33
2022-09-06T06:00:24.210Z,0.90
2022-09-06T06:02:51.158Z,1.08
2022-09-06T06:05:18.981Z,1.08
2022-09-06T06:07:46.291Z,0.85
2022-09-06T06:10:13.487Z,1.50
2022-09-06T06:12:40.726Z,1.17
2022-09-06T06:15:07.836Z,1.08
2022-09-06T06:17:35.098Z,1.20
2022-09-06T06:20:03.005Z,1.30
2022-09-06T06:22:30.232Z,1.05
2022-09-06T06:24:57.462Z,1.40
2022-09-06T06:27:24.741Z,1.10
2022-09-06T06:29:52.695Z,1.25
2022-09-06T06:32:20.031Z,1.67
2022-09-06T06:34:49.529Z,1.10
2022-09-06T06:37:18.883Z,1.10
2022-09-06T06:39:46.566Z,1.30
2022-09-06T06:42:16.043Z,0.98
2022-09-06T06:44:53.442Z,1.15
2022-09-06T06:47:21.078Z,1.13
2022-09-06T06:49:49.245Z,1.40
2022-09-06T06:52:16.617Z,1.42
2022-09-06T06:54:43.837Z,1.33
2022-09-06T06:57:12.642Z,1.50
2022-09-06T06:59:40.112Z,1.10
2022-09-06T07:02:07.854Z,1.33
2022-09-06T07:04:35.206Z,1.30
2022-09-06T07:12:39.161Z,1.52
2022-09-06T07:15:06.493Z,1.25
2022-09-06T07:17:34.672Z,1.67
2022-09-06T07:20:17.373Z,1.00
2022-09-06T07:22:44.249Z,1.35
2022-09-06T07:25:15.294Z,2.00
2022-09-06T07:30:16.786Z,1.35
2022-09-06T07:32:44.162Z,1.25
2022-09-06T07:35:13.928Z,1.52
2022-09-06T07:37:41.427Z,1.30
2022-09-06T07:40:09.125Z,2.10
2022-09-06T07:42:36.932Z,1.70
2022-09-06T07:45:05.155Z,2.00
2022-09-06T07:53:10.113Z,1.52
2022-09-06T07:55:41.173Z,1.67
2022-09-06T07:58:08.494Z,1.80
2022-09-06T08:00:35.780Z,1.50
2022-09-06T08:03:02.633Z,1.58
2022-09-06T08:11:07.477Z,2.10
2022-09-06T08:13:35.378Z,1.52
2022-09-06T08:16:03.745Z,1.63
2022-09-06T08:18:31.187Z,1.50
2022-09-06T08:21:10.213Z,1.77
2022-09-06T08:23:42.869Z,1.90
2022-09-06T08:26:10.113Z,2.22
2022-09-06T08:28:37.624Z,1.52
2022-09-06T08:31:09.526Z,2.13
2022-09-06T08:33:37.690Z,1.92
2022-09-06T08:36:05.436Z,2.28
2022-09-06T08:38:33.154Z,1.50
2022-09-06T08:41:12.636Z,1.60
2022-09-06T08:43:40.295Z,1.63
2022-09-06T08:46:08.611Z,1.70
2022-09-06T08:48:39.740Z,1.88
2022-09-06T08:51:13.163Z,2.08
2022-09-06T08:53:42.253Z,2.40
2022-09-06T08:56:20.772Z,2.28
2022-09-06T08:58:51.015Z,2.50
2022-09-06T09:01:23.111Z,2.15
2022-09-06T09:03:50.515Z,2.50
2022-09-06T09:06:17.361Z,2.00
2022-09-06T09:08:48.053Z,1.95
2022-09-06T09:11:19.211Z,1.85
2022-09-06T09:13:59.346Z,1.73
2022-09-06T09:16:26.821Z,1.95
2022-09-06T09:18:55.890Z,1.83
2022-09-06T09:21:29.560Z,1.60
2022-09-06T09:24:01.990Z,1.80
2022-09-06T09:26:31.965Z,1.70
2022-09-06T09:29:06.712Z,1.80
2022-09-06T09:31:35.462Z,1.63
2022-09-06T09:34:04.792Z,1.40
2022-09-06T09:36:32.863Z,1.50
2022-09-06T09:39:00.536Z,1.70
2022-09-06T09:41:29.667Z,1.52
2022-09-06T09:44:04.662Z,1.67
2022-09-06T09:46:33.842Z,1.73
2022-09-06T09:49:11.245Z,1.67
2022-09-06T09:51:40.587Z,2.05
2022-09-06T09:54:09.680Z,1.80
2022-09-06T09:56:43.791Z,1.42
2022-09-06T09:59:37.256Z,1.42
2022-09-06T10:02:17.625Z,1.70
2022-09-06T10:04:50.388Z,1.55
2022-09-06T10:07:19.696Z,1.33
2022-09-06T10:09:48.407Z,1.73
2022-09-06T10:12:20.543Z,1.77
2022-09-06T10:14:49.201Z,1.77
2022-09-06T10:17:20.714Z,1.25
2022-09-06T10:19:48.840Z,1.65
2022-09-06T10:22:16.353Z,1.88
2022-09-06T10:24:51.360Z,1.27
2022-09-06T10:27:22.500Z,1.57
2022-09-06T10:29:59.090Z,1.35
2022-09-06T10:32:38.573Z,1.30
2022-09-06T10:35:09.509Z,1.35
2022-09-06T10:37:55.111Z,1.48
2022-09-06T10:40:22.347Z,1.02
2022-09-06T10:42:53.810Z,1.30
2022-09-06T10:45:21.145Z,1.10
2022-09-06T10:48:20.806Z,1.30
2022-09-06T10:50:47.984Z,1.00
2022-09-06T10:53:24.381Z,1.30
2022-09-06T10:56:01.444Z,1.27
2022-09-06T11:01:39.956Z,1.63
2022-09-06T11:04:12.725Z,1.13
2022-09-06T11:06:47.827Z,1.20
2022-09-06T11:09:15.073Z,1.42
2022-09-06T11:11:54.441Z,1.10
2022-09-06T11:14:23.515Z,1.17
2022-09-06T11:17:16.863Z,1.30
2022-09-06T11:20:05.879Z,1.15
2022-09-06T11:22:42.264Z,1.50
2022-09-06T11:25:18.680Z,1.10
2022-09-06T11:27:47.633Z,1.23
2022-09-06T11:30:16.210Z,1.08
2022-09-06T11:32:48.630Z,1.33
2022-09-06T11:35:26.651Z,1.40
2022-09-06T11:37:59.894Z,1.20
2022-09-06T11:40:46.659Z,1.17
2022-09-06T11:43:15.998Z,1.00
2022-09-06T11:45:47.980Z,1.50
2022-09-06T11:48:23.881Z,1.70
2022-09-06T11:50:54.265Z,1.50
2022-09-06T11:53:23.510Z,1.30
2022-09-06T11:55:52.594Z,1.10
2022-09-06T11:58:30.691Z,1.15
2022-09-06T12:01:13.213Z,1.10
2022-09-06T12:06:40.854Z,0.80
2022-09-06T12:09:28.314Z,1.05
2022-09-06T12:11:56.656Z,0.93
2022-09-06T12:14:29.810Z,0.90
2022-09-06T12:17:04.825Z,0.98
2022-09-06T12:19:44.794Z,1.05
2022-09-06T12:22:27.539Z,1.27
2022-09-06T12:24:56.476Z,0.90
2022-09-06T12:27:24.058Z,1.00
2022-09-06T12:29:54.962Z,0.82
2022-09-06T12:32:24.820Z,1.08
2022-09-06T12:37:57.269Z,0.95
2022-09-06T12:40:27.642Z,1.10
2022-09-06T12:42:55.156Z,1.00
2022-09-06T12:45:27.218Z,1.00
2022-09-06T12:48:05.103Z,0.80
2022-09-06T12:50:31.950Z,1.15
2022-09-06T12:53:00.591Z,0.80
2022-09-06T12:55:28.034Z,1.00
2022-09-06T12:57:57.245Z,1.10
2022-09-06T13:00:26.213Z,1.20
2022-09-06T13:03:16.920Z,0.95
2022-09-06T13:05:45.278Z,1.20
2022-09-06T13:08:19.350Z,1.25
2022-09-06T13:10:48.016Z,1.17
2022-09-06T13:13:25.032Z,0.95
2022-09-06T13:15:52.980Z,1.10
2022-09-06T13:18:35.885Z,0.88
2022-09-06T13:21:04.458Z,1.13
2022-09-06T13:23:41.078Z,1.23
2022-09-06T13:26:08.378Z,0.98
2022-09-06T13:28:36.168Z,1.10
2022-09-06T13:31:03.660Z,1.10
2022-09-06T13:33:31.326Z,1.30
2022-09-06T13:36:08.348Z,1.13
2022-09-06T13:38:38.680Z,1.00
2022-09-06T13:41:15.842Z,1.00
2022-09-06T13:43:45.218Z,0.95
2022-09-06T13:46:12.611Z,1.25
2022-09-06T13:48:40.347Z,0.93
2022-09-06T13:51:08.778Z,0.98
2022-09-06T13:53:36.347Z,0.88
2022-09-06T13:56:03.811Z,0.70
2022-09-06T13:58:31.062Z,1.02
2022-09-06T14:00:59.130Z,1.05
2022-09-06T14:03:31.098Z,1.10
2022-09-06T14:06:00.195Z,1.15
2022-09-06T14:08:43.866Z,0.82
2022-09-06T14:11:18.370Z,1.27
2022-09-06T14:13:45.763Z,0.80
2022-09-06T14:16:13.449Z,1.25
2022-09-06T14:18:41.306Z,0.98
2022-09-06T14:21:08.738Z,0.90
2022-09-06T14:23:35.543Z,0.82
2022-09-06T14:26:03.527Z,1.08
2022-09-06T14:28:34.206Z,1.17
2022-09-06T14:31:14.488Z,0.70
2022-09-06T14:33:41.943Z,0.88
2022-09-06T14:36:10.084Z,0.80
2022-09-06T14:38:38.397Z,0.60
2022-09-06T14:41:06.071Z,0.70
2022-09-06T14:43:33.457Z,0.90
2022-09-06T14:46:05.269Z,0.90
2022-09-06T14:48:32.884Z,0.85
2022-09-06T14:51:07.155Z,1.05
2022-09-06T14:53:40.167Z,0.80
2022-09-06T14:56:08.597Z,1.08
2022-09-06T14:58:37.482Z,0.63
2022-09-06T15:01:15.794Z,0.85
2022-09-06T15:03:48.503Z,1.00
2022-09-06T15:06:16.520Z,1.08
2022-09-06T15:08:44.206Z,1.02
2022-09-06T15:11:12.226Z,0.85
2022-09-06T15:13:40.594Z,1.00
2022-09-06T15:16:09.050Z,0.73
2022-09-06T15:18:36.563Z,1.08
2022-09-06T15:21:14.408Z,0.93
2022-09-06T15:23:43.035Z,1.02
2022-09-06T15:26:11.339Z,1.23
2022-09-06T15:28:39.820Z,0.90
2022-09-06T15:31:08.231Z,1.08
2022-09-06T15:33:36.157Z,1.48
2022-09-06T15:36:06.619Z,1.70
2022-09-06T15:38:40.687Z,0.90
2022-09-06T15:41:08.920Z,1.20
2022-09-06T15:43:37.210Z,1.05
2022-09-06T15:46:04.749Z,1.23
2022-09-06T15:48:40.796Z,0.73
2022-09-06T15:51:07.731Z,0.85
2022-09-06T15:53:35.051Z,1.10
2022-09-06T15:56:03.760Z,1.90
2022-09-06T15:58:31.268Z,0.88
2022-09-06T16:01:09.942Z,0.90
2022-09-06T16:03:41.972Z,0.90
2022-09-06T16:06:27.234Z,1.30
2022-09-06T16:08:59.700Z,1.15
2022-09-06T16:11:27.542Z,1.40
2022-09-06T16:13:54.655Z,1.17
2022-09-06T16:16:22.707Z,5.53
2022-09-06T16:18:52.397Z,6.47
2022-09-06T16:21:20.066Z,3.40
2022-09-06T16:23:54.837Z,1.92
2022-09-06T16:26:23.104Z,1.57
2022-09-06T16:28:51.177Z,1.30
2022-09-06T16:31:18.891Z,0.73
2022-09-06T16:33:47.471Z,0.88
2022-09-06T16:36:15.008Z,0.90
2022-09-06T16:38:42.685Z,0.80
2022-09-06T16:41:21.471Z,0.90
2022-09-06T16:43:49.342Z,1.00
2022-09-06T16:46:16.935Z,1.20
2022-09-06T16:48:44.858Z,1.08
2022-09-06T16:51:16.384Z,1.08
2022-09-06T16:53:44.629Z,2.40
2022-09-06T16:56:12.850Z,1.30
2022-09-06T16:58:41.736Z,2.30
2022-09-06T17:01:09.513Z,1.70
2022-09-06T17:03:37.583Z,1.17
2022-09-06T17:06:05.242Z,1.05
2022-09-06T17:08:33.604Z,1.08
2022-09-06T17:11:02.139Z,0.77
2022-09-06T17:13:29.663Z,1.02
2022-09-06T17:16:18.039Z,1.02
2022-09-06T17:18:48.728Z,1.02
2022-09-06T17:21:15.975Z,0.95
2022-09-06T17:23:43.543Z,0.90
2022-09-06T17:26:10.772Z,1.10
2022-09-06T17:28:39.543Z,1.00
2022-09-06T17:31:07.351Z,0.98
2022-09-06T17:33:36.157Z,0.98
2022-09-06T17:36:08.224Z,0.98
2022-09-06T17:38:35.806Z,0.90
2022-09-06T17:41:03.281Z,0.82
2022-09-06T17:43:30.814Z,1.08
2022-09-06T17:45:58.703Z,1.17
2022-09-06T17:48:28.575Z,1.00
2022-09-06T17:50:56.990Z,0.95
2022-09-06T17:53:24.478Z,0.95
2022-09-06T17:55:52.291Z,0.80
2022-09-06T17:58:20.164Z,0.77
2022-09-06T18:00:47.494Z,1.20
2022-09-06T18:03:15.883Z,1.10
2022-09-06T18:05:45.205Z,0.82
2022-09-06T18:08:13.028Z,0.80
2022-09-06T18:10:41.238Z,1.33
2022-09-06T18:13:09.257Z,0.80
2022-09-06T18:15:40.524Z,0.85
2022-09-06T18:18:07.974Z,0.63
2022-09-06T18:20:35.558Z,0.70
2022-09-06T18:23:02.792Z,0.70
2022-09-06T18:25:31.477Z,1.10
2022-09-06T18:27:58.992Z,0.70
2022-09-06T18:30:26.385Z,1.30
2022-09-06T18:32:53.708Z,1.05
2022-09-06T18:35:20.522Z,0.90
2022-09-06T18:37:47.752Z,1.10
2022-09-06T18:40:14.665Z,0.80
2022-09-06T18:42:45.272Z,0.80
2022-09-06T18:45:13.387Z,0.95
2022-09-06T18:47:40.639Z,0.98
2022-09-06T18:50:09.740Z,0.82
2022-09-06T18:52:38.413Z,0.98
2022-09-06T18:55:05.934Z,0.95
2022-09-06T18:57:33.171Z,0.90
2022-09-06T19:00:00.597Z,0.90
2022-09-06T19:02:28.797Z,0.90
2022-09-06T19:04:56.050Z,0.63
2022-09-06T19:07:23.293Z,0.82
2022-09-06T19:09:50.119Z,0.77
2022-09-06T19:12:17.346Z,0.98
2022-09-06T19:14:44.620Z,0.82
2022-09-06T19:17:11.897Z,0.80
2022-09-06T19:19:38.695Z,0.70
2022-09-06T19:22:05.899Z,0.85
2022-09-06T19:24:33.579Z,0.70
2022-09-06T19:27:01.028Z,0.60
2022-09-06T19:29:28.595Z,0.57
2022-09-06T19:31:55.919Z,0.52
2022-09-06T19:34:23.236Z,0.80
2022-09-06T19:36:55.028Z,0.50
2022-09-06T19:39:22.278Z,0.60
2022-09-06T19:41:49.645Z,0.60
2022-09-06T19:44:17.359Z,0.70
2022-09-06T19:46:47.212Z,0.68
2022-09-06T19:49:16.069Z,0.75
2022-09-06T19:51:45.205Z,0.60
2022-09-06T19:54:12.932Z,0.50
2022-09-06T19:56:39.729Z,0.50
2022-09-06T19:59:08.588Z,0.50
2022-09-06T20:01:36.583Z,0.52
2022-09-06T20:04:05.281Z,0.60
2022-09-06T20:06:32.452Z,0.45
2022-09-06T20:09:00.535Z,0.63
2022-09-06T20:11:28.803Z,0.60
2022-09-06T20:13:55.991Z,0.70
2022-09-06T20:16:24.825Z,0.60
2022-09-06T20:18:52.440Z,0.47
2022-09-06T20:21:20.930Z,0.50
2022-09-06T20:23:52.014Z,0.60
2022-09-06T20:26:19.682Z,0.70
2022-09-06T20:28:47.464Z,0.40
2022-09-06T20:31:20.651Z,0.60
2022-09-06T20:33:49.862Z,0.80
2022-09-06T20:36:18.027Z,0.60
2022-09-06T20:38:45.842Z,0.60
2022-09-06T20:41:14.413Z,0.73
2022-09-06T20:43:42.531Z,0.85
2022-09-06T20:46:09.788Z,0.82
2022-09-06T20:48:44.197Z,0.68
2022-09-06T20:51:18.736Z,0.50
2022-09-06T20:53:48.066Z,0.63
2022-09-06T20:56:19.824Z,0.80
2022-09-06T20:58:51.113Z,0.75
2022-09-06T21:01:22.423Z,0.60
2022-09-06T21:03:51.484Z,0.77
2022-09-06T21:06:19.057Z,0.88
2022-09-06T21:08:46.287Z,0.82
2022-09-06T21:11:13.656Z,0.60
2022-09-06T21:13:40.977Z,0.70
2022-09-06T21:16:08.104Z,0.55
2022-09-06T21:18:35.862Z,0.68
2022-09-06T21:21:04.865Z,0.40
2022-09-06T21:23:34.005Z,0.70
2022-09-06T21:26:02.421Z,0.82
2022-09-06T21:28:30.694Z,0.70
2022-09-06T21:31:23.886Z,0.90
2022-09-06T21:33:55.420Z,0.63
2022-09-06T21:36:24.085Z,0.80
2022-09-06T21:38:53.794Z,0.70
2022-09-06T21:41:21.068Z,0.68
2022-09-06T21:43:52.046Z,0.73
2022-09-06T21:46:20.248Z,0.60
2022-09-06T21:48:48.542Z,0.77
2022-09-06T21:51:18.475Z,0.73
2022-09-06T21:53:46.947Z,0.63
2022-09-06T21:56:15.619Z,0.63
2022-09-06T21:58:44.321Z,0.40
2022-09-06T22:01:11.391Z,0.63
2022-09-06T22:03:40.355Z,0.63
2022-09-06T22:06:15.415Z,0.50
2022-09-06T22:08:43.818Z,0.67
2022-09-06T22:11:21.264Z,0.90
2022-09-06T22:13:48.972Z,1.15
2022-09-06T22:16:17.323Z,1.00
2022-09-06T22:18:45.012Z,1.00
2022-09-06T22:21:15.357Z,1.20
2022-09-06T22:23:42.565Z,0.93
2022-09-06T22:26:11.611Z,0.95
2022-09-06T22:28:40.283Z,1.08
2022-09-06T22:31:08.212Z,1.17
2022-09-06T22:33:36.039Z,0.90
2022-09-06T22:36:03.464Z,1.02
2022-09-06T22:38:31.254Z,0.80
2022-09-06T22:40:58.428Z,1.00
2022-09-06T22:43:26.043Z,0.90
2022-09-06T22:45:53.415Z,1.00
2022-09-06T22:48:20.648Z,1.10
2022-09-06T22:50:47.834Z,0.90
2022-09-06T22:53:14.647Z,0.93
2022-09-06T22:55:46.623Z,1.45
2022-09-06T22:58:13.885Z,1.20
2022-09-06T23:00:41.242Z,1.10
2022-09-06T23:03:08.468Z,0.82
2022-09-06T23:05:36.443Z,0.80
2022-09-06T23:08:03.799Z,0.90
2022-09-06T23:10:31.470Z,1.10
2022-09-06T23:12:58.804Z,1.17
2022-09-06T23:15:26.427Z,1.10
2022-09-06T23:17:53.903Z,1.10
2022-09-06T23:20:21.434Z,1.33
2022-09-06T23:22:48.421Z,1.00
2022-09-06T23:25:15.759Z,1.20
2022-09-06T23:27:43.033Z,1.00
2022-09-06T23:30:11.137Z,1.00
2022-09-06T23:32:38.656Z,1.23
2022-09-06T23:35:06.071Z,0.80
2022-09-06T23:37:33.298Z,1.15
2022-09-06T23:40:00.545Z,0.93
2022-09-06T23:42:27.960Z,1.00
2022-09-06T23:44:58.982Z,0.90
2022-09-06T23:47:26.288Z,0.90
2022-09-06T23:49:53.518Z,1.10
2022-09-06T23:52:20.558Z,1.08
2022-09-06T23:54:47.781Z,1.10
2022-09-06T23:57:15.045Z,1.42
2022-09-06T23:59:42.239Z,1.10
